createdAt,value
2023-02-26T00:00:19.293Z,0.00
2023-02-26T00:01:19.466Z,0.00
2023-02-26T00:02:19.665Z,0.00
2023-02-26T00:03:19.863Z,0.00
2023-02-26T00:04:19.983Z,0.00
2023-02-26T00:05:20.171Z,0.00
2023-02-26T00:06:20.337Z,0.00
2023-02-26T00:07:20.512Z,0.00
2023-02-26T00:08:20.691Z,0.00
2023-02-26T00:09:20.852Z,0.00
2023-02-26T00:10:21.039Z,0.00
2023-02-26T00:11:21.220Z,0.00
2023-02-26T00:12:21.369Z,0.00
2023-02-26T00:13:21.702Z,0.00
2023-02-26T00:14:21.710Z,0.00
2023-02-26T00:15:21.887Z,0.00
2023-02-26T00:16:22.044Z,0.00
2023-02-26T00:17:22.289Z,0.00
2023-02-26T00:18:22.399Z,0.00
2023-02-26T00:19:22.586Z,0.00
2023-02-26T00:20:22.743Z,0.00
2023-02-26T00:21:22.929Z,0.00
2023-02-26T00:22:23.087Z,0.00
2023-02-26T00:23:23.268Z,0.00
2023-02-26T00:24:23.432Z,0.00
2023-02-26T00:25:23.607Z,0.00
2023-02-26T00:26:23.768Z,0.00
2023-02-26T00:27:23.942Z,0.00
2023-02-26T00:28:24.127Z,0.00
2023-02-26T00:29:24.278Z,0.00
2023-02-26T00:30:24.449Z,0.00
2023-02-26T00:31:24.903Z,0.00
2023-02-26T00:32:24.818Z,0.00
2023-02-26T00:33:24.980Z,0.00
2023-02-26T00:34:25.141Z,0.00
2023-02-26T00:35:25.307Z,0.00
2023-02-26T00:36:25.945Z,0.00
2023-02-26T00:37:25.673Z,0.00
2023-02-26T00:38:25.847Z,0.00
2023-02-26T00:39:26.026Z,0.00
2023-02-26T00:40:26.188Z,0.00
2023-02-26T00:41:26.379Z,0.00
2023-02-26T00:42:26.527Z,0.00
2023-02-26T00:43:26.738Z,0.00
2023-02-26T00:44:26.901Z,0.00
2023-02-26T00:45:27.087Z,0.00
2023-02-26T00:46:27.695Z,0.00
2023-02-26T00:47:27.419Z,0.00
2023-02-26T00:48:27.604Z,0.00
2023-02-26T00:49:27.787Z,0.00
2023-02-26T00:50:27.954Z,0.00
2023-02-26T00:51:28.125Z,0.00
2023-02-26T00:52:28.300Z,0.00
2023-02-26T00:53:28.477Z,0.00
2023-02-26T00:54:28.636Z,0.00
2023-02-26T00:55:29.659Z,0.00
2023-02-26T00:56:28.990Z,0.00
2023-02-26T00:57:29.156Z,0.00
2023-02-26T00:58:29.344Z,0.00
2023-02-26T00:59:29.516Z,0.00
2023-02-26T01:00:29.676Z,0.00
2023-02-26T01:01:29.922Z,0.00
2023-02-26T01:02:30.020Z,0.00
2023-02-26T01:03:30.247Z,0.00
2023-02-26T01:04:30.364Z,0.00
2023-02-26T01:05:30.546Z,0.00
2023-02-26T01:06:30.717Z,0.00
2023-02-26T01:07:30.898Z,0.00
2023-02-26T01:08:31.072Z,0.00
2023-02-26T01:09:31.241Z,0.00
2023-02-26T01:10:31.404Z,0.00
2023-02-26T01:11:31.600Z,0.00
2023-02-26T01:12:31.728Z,0.00
2023-02-26T01:13:31.925Z,0.00
2023-02-26T01:14:32.082Z,0.00
2023-02-26T01:15:32.295Z,0.00
2023-02-26T01:16:32.449Z,0.00
2023-02-26T01:17:32.621Z,0.00
2023-02-26T01:18:32.794Z,0.00
2023-02-26T01:19:32.958Z,0.00
2023-02-26T01:20:33.146Z,0.00
2023-02-26T01:21:33.293Z,0.00
2023-02-26T01:22:33.463Z,0.00
2023-02-26T01:23:33.642Z,0.00
2023-02-26T01:24:33.818Z,0.00
2023-02-26T01:25:33.990Z,0.00
2023-02-26T01:26:34.161Z,0.00
2023-02-26T01:27:34.344Z,0.00
2023-02-26T01:28:34.509Z,0.00
2023-02-26T01:29:34.688Z,0.00
2023-02-26T01:30:34.838Z,0.00
2023-02-26T01:31:35.131Z,0.00
2023-02-26T01:32:35.186Z,0.00
2023-02-26T01:33:35.348Z,0.00
2023-02-26T01:34:35.517Z,0.00
2023-02-26T01:35:35.695Z,0.00
2023-02-26T01:36:35.886Z,0.00
2023-02-26T01:37:36.057Z,0.00
2023-02-26T01:38:36.230Z,0.00
2023-02-26T01:39:36.397Z,0.00
2023-02-26T01:40:36.567Z,0.00
2023-02-26T01:41:36.746Z,0.00
2023-02-26T01:42:36.900Z,0.00
2023-02-26T01:43:37.170Z,0.00
2023-02-26T01:44:37.262Z,0.00
2023-02-26T01:45:37.431Z,0.00
2023-02-26T01:46:37.633Z,0.00
2023-02-26T01:47:37.779Z,0.00
2023-02-26T01:48:37.967Z,0.00
2023-02-26T01:49:38.110Z,0.00
2023-02-26T01:50:38.270Z,0.00
2023-02-26T01:51:38.470Z,0.00
2023-02-26T01:52:38.639Z,0.00
2023-02-26T01:53:38.843Z,0.00
2023-02-26T01:54:39.005Z,0.00
2023-02-26T01:55:39.169Z,0.00
2023-02-26T01:56:39.329Z,0.00
2023-02-26T01:57:39.501Z,0.00
2023-02-26T01:58:39.691Z,0.00
2023-02-26T01:59:39.827Z,0.00
2023-02-26T02:00:39.991Z,0.00
2023-02-26T02:01:40.178Z,0.00
2023-02-26T02:02:40.384Z,0.00
2023-02-26T02:03:40.540Z,0.00
2023-02-26T02:04:40.670Z,0.00
2023-02-26T02:05:40.888Z,0.00
2023-02-26T02:06:40.978Z,0.00
2023-02-26T02:07:41.158Z,0.00
2023-02-26T02:08:41.366Z,0.00
2023-02-26T02:09:41.510Z,0.00
2023-02-26T02:10:41.686Z,0.00
2023-02-26T02:11:41.862Z,0.00
2023-02-26T02:12:42.027Z,0.00
2023-02-26T02:13:42.230Z,0.00
2023-02-26T02:14:42.362Z,0.00
2023-02-26T02:15:42.530Z,0.00
2023-02-26T02:16:42.786Z,0.00
2023-02-26T02:17:42.872Z,0.00
2023-02-26T02:18:43.067Z,0.00
2023-02-26T02:19:43.247Z,0.00
2023-02-26T02:20:43.413Z,0.00
2023-02-26T02:21:43.590Z,0.00
2023-02-26T02:22:43.751Z,0.00
2023-02-26T02:23:43.940Z,0.00
2023-02-26T02:24:44.083Z,0.00
2023-02-26T02:25:44.249Z,0.00
2023-02-26T02:26:44.420Z,0.00
2023-02-26T02:27:44.592Z,0.00
2023-02-26T02:28:44.759Z,0.00
2023-02-26T02:29:44.933Z,0.00
2023-02-26T02:30:45.104Z,0.00
2023-02-26T02:31:45.503Z,0.00
2023-02-26T02:32:45.453Z,0.00
2023-02-26T02:33:45.624Z,0.00
2023-02-26T02:34:45.789Z,0.00
2023-02-26T02:35:45.957Z,0.00
2023-02-26T02:36:46.141Z,0.00
2023-02-26T02:37:46.303Z,0.00
2023-02-26T02:38:46.487Z,0.00
2023-02-26T02:39:46.659Z,0.00
2023-02-26T02:40:46.832Z,0.00
2023-02-26T02:41:46.999Z,0.00
2023-02-26T02:42:47.223Z,0.00
2023-02-26T02:43:47.358Z,0.00
2023-02-26T02:44:47.516Z,0.00
2023-02-26T02:45:47.740Z,0.00
2023-02-26T02:46:47.936Z,0.00
2023-02-26T02:47:48.044Z,0.00
2023-02-26T02:48:48.229Z,0.00
2023-02-26T02:49:48.396Z,0.00
2023-02-26T02:50:48.576Z,0.00
2023-02-26T02:51:48.735Z,0.00
2023-02-26T02:52:48.941Z,0.00
2023-02-26T02:53:49.118Z,0.00
2023-02-26T02:54:49.287Z,0.00
2023-02-26T02:55:49.458Z,0.00
2023-02-26T02:56:49.643Z,0.00
2023-02-26T02:57:49.804Z,0.00
2023-02-26T02:58:50.018Z,0.00
2023-02-26T02:59:50.150Z,0.00
2023-02-26T03:00:50.344Z,0.00
2023-02-26T03:01:50.495Z,0.00
2023-02-26T03:02:50.681Z,0.00
2023-02-26T03:03:50.857Z,0.00
2023-02-26T03:04:51.022Z,0.00
2023-02-26T03:05:51.186Z,0.00
2023-02-26T03:06:51.368Z,0.00
2023-02-26T03:07:51.525Z,0.00
2023-02-26T03:08:51.698Z,0.00
2023-02-26T03:09:51.876Z,0.00
2023-02-26T03:10:52.048Z,0.00
2023-02-26T03:11:52.212Z,0.00
2023-02-26T03:12:52.385Z,0.00
2023-02-26T03:13:52.565Z,0.00
2023-02-26T03:14:52.733Z,0.00
2023-02-26T03:15:52.895Z,0.00
2023-02-26T03:16:53.123Z,0.00
2023-02-26T03:17:53.245Z,0.00
2023-02-26T03:18:53.443Z,0.00
2023-02-26T03:19:53.613Z,0.00
2023-02-26T03:20:53.785Z,0.00
2023-02-26T03:21:53.962Z,0.00
2023-02-26T03:22:54.118Z,0.00
2023-02-26T03:23:54.301Z,0.00
2023-02-26T03:24:54.457Z,0.00
2023-02-26T03:25:54.616Z,0.00
2023-02-26T03:26:54.805Z,0.00
2023-02-26T03:27:54.968Z,0.00
2023-02-26T03:28:55.146Z,0.00
2023-02-26T03:29:55.316Z,0.00
2023-02-26T03:30:55.540Z,0.00
2023-02-26T03:31:55.770Z,0.00
2023-02-26T03:32:55.826Z,0.00
2023-02-26T03:33:56.015Z,0.00
2023-02-26T03:34:56.197Z,0.00
2023-02-26T03:35:56.359Z,0.00
2023-02-26T03:36:56.515Z,0.00
2023-02-26T03:37:56.676Z,0.00
2023-02-26T03:38:56.884Z,0.00
2023-02-26T03:39:57.007Z,0.00
2023-02-26T03:40:57.193Z,0.00
2023-02-26T03:41:57.366Z,0.00
2023-02-26T03:42:57.529Z,0.00
2023-02-26T03:43:57.719Z,0.00
2023-02-26T03:44:57.898Z,0.00
2023-02-26T03:45:58.098Z,0.00
2023-02-26T03:46:58.247Z,0.00
2023-02-26T03:47:58.421Z,0.00
2023-02-26T03:48:58.638Z,0.00
2023-02-26T03:49:58.759Z,0.00
2023-02-26T03:50:58.927Z,0.00
2023-02-26T03:51:59.118Z,0.00
2023-02-26T03:52:59.287Z,0.00
2023-02-26T03:53:59.466Z,0.00
2023-02-26T03:54:59.643Z,0.00
2023-02-26T03:55:59.805Z,0.00
2023-02-26T03:56:59.978Z,0.00
2023-02-26T03:58:00.132Z,0.00
2023-02-26T03:59:00.316Z,0.00
2023-02-26T04:00:00.501Z,0.00
2023-02-26T04:01:00.658Z,0.00
2023-02-26T04:02:00.839Z,0.00
2023-02-26T04:03:01.004Z,0.00
2023-02-26T04:04:01.224Z,0.00
2023-02-26T04:05:01.351Z,0.00
2023-02-26T04:06:01.528Z,0.00
2023-02-26T04:07:01.682Z,0.00
2023-02-26T04:08:01.865Z,0.00
2023-02-26T04:09:02.074Z,0.00
2023-02-26T04:10:02.234Z,0.00
2023-02-26T04:11:02.404Z,0.00
2023-02-26T04:12:02.568Z,0.00
2023-02-26T04:13:02.748Z,0.00
2023-02-26T04:14:02.932Z,0.00
2023-02-26T04:15:03.115Z,0.00
2023-02-26T04:16:03.283Z,0.00
2023-02-26T04:17:03.526Z,0.00
2023-02-26T04:18:03.636Z,0.00
2023-02-26T04:19:03.821Z,0.00
2023-02-26T04:20:03.994Z,0.00
2023-02-26T04:21:04.161Z,0.00
2023-02-26T04:22:04.335Z,0.00
2023-02-26T04:23:04.522Z,0.00
2023-02-26T04:24:04.690Z,0.00
2023-02-26T04:25:04.860Z,0.00
2023-02-26T04:26:05.058Z,0.00
2023-02-26T04:27:05.203Z,0.00
2023-02-26T04:28:05.380Z,0.00
2023-02-26T04:29:05.549Z,0.00
2023-02-26T04:30:05.715Z,0.00
2023-02-26T04:31:06.036Z,0.00
2023-02-26T04:32:06.193Z,0.00
2023-02-26T04:33:06.256Z,0.00
2023-02-26T04:34:06.447Z,0.00
2023-02-26T04:35:06.612Z,0.00
2023-02-26T04:36:06.767Z,0.00
2023-02-26T04:37:06.945Z,0.00
2023-02-26T04:38:07.104Z,0.00
2023-02-26T04:39:07.316Z,0.00
2023-02-26T04:40:07.452Z,0.00
2023-02-26T04:41:07.612Z,0.00
2023-02-26T04:42:07.786Z,0.00
2023-02-26T04:43:07.971Z,0.00
2023-02-26T04:44:08.151Z,0.00
2023-02-26T04:45:08.308Z,0.00
2023-02-26T04:46:08.515Z,0.00
2023-02-26T04:47:08.664Z,0.00
2023-02-26T04:48:08.821Z,0.00
2023-02-26T04:49:09.019Z,0.00
2023-02-26T04:50:09.150Z,0.00
2023-02-26T04:51:09.329Z,0.00
2023-02-26T04:52:09.515Z,0.00
2023-02-26T04:53:09.671Z,0.00
2023-02-26T04:54:09.870Z,0.00
2023-02-26T04:55:10.011Z,0.00
2023-02-26T04:56:10.186Z,0.00
2023-02-26T04:57:10.352Z,0.00
2023-02-26T04:58:10.518Z,0.00
2023-02-26T04:59:10.708Z,0.00
2023-02-26T05:00:10.890Z,0.00
2023-02-26T05:01:11.066Z,0.00
2023-02-26T05:02:11.239Z,0.00
2023-02-26T05:03:11.397Z,0.00
2023-02-26T05:04:11.576Z,0.00
2023-02-26T05:05:11.744Z,0.00
2023-02-26T05:06:11.915Z,0.00
2023-02-26T05:07:12.101Z,0.00
2023-02-26T05:08:12.260Z,0.00
2023-02-26T05:09:12.423Z,0.00
2023-02-26T05:10:12.600Z,0.00
2023-02-26T05:11:12.783Z,0.00
2023-02-26T05:12:13.941Z,0.00
2023-02-26T05:13:13.109Z,0.00
2023-02-26T05:14:13.281Z,0.00
2023-02-26T05:15:13.480Z,0.00
2023-02-26T05:16:13.695Z,0.00
2023-02-26T05:17:13.821Z,0.00
2023-02-26T05:18:13.995Z,0.00
2023-02-26T05:19:14.169Z,0.00
2023-02-26T05:20:14.349Z,0.00
2023-02-26T05:21:14.525Z,0.00
2023-02-26T05:22:14.680Z,0.00
2023-02-26T05:23:14.851Z,0.00
2023-02-26T05:24:15.022Z,0.00
2023-02-26T05:25:15.212Z,0.00
2023-02-26T05:26:15.382Z,0.00
2023-02-26T05:27:15.540Z,0.00
2023-02-26T05:28:15.716Z,0.00
2023-02-26T05:29:15.889Z,0.00
2023-02-26T05:30:16.108Z,0.00
2023-02-26T05:31:16.363Z,0.00
2023-02-26T05:32:16.459Z,0.00
2023-02-26T05:33:16.597Z,4.00
2023-02-26T05:34:16.771Z,4.00
2023-02-26T05:35:16.948Z,0.00
2023-02-26T05:36:17.118Z,4.00
2023-02-26T05:37:17.288Z,0.00
2023-02-26T05:38:17.458Z,4.00
2023-02-26T05:39:17.638Z,8.00
2023-02-26T05:40:17.819Z,8.00
2023-02-26T05:41:17.957Z,4.00
2023-02-26T05:42:18.125Z,8.00
2023-02-26T05:43:18.298Z,8.00
2023-02-26T05:44:18.478Z,8.00
2023-02-26T05:45:18.690Z,12.00
2023-02-26T05:46:18.914Z,16.00
2023-02-26T05:47:19.019Z,16.00
2023-02-26T05:48:19.166Z,20.00
2023-02-26T05:49:19.364Z,24.00
2023-02-26T05:50:19.535Z,24.00
2023-02-26T05:51:19.693Z,32.00
2023-02-26T05:52:19.890Z,36.00
2023-02-26T05:53:20.044Z,40.00
2023-02-26T05:54:20.211Z,44.00
2023-02-26T05:55:20.383Z,48.00
2023-02-26T05:56:20.554Z,56.00
2023-02-26T05:57:20.713Z,64.00
2023-02-26T05:58:20.895Z,72.00
2023-02-26T05:59:21.088Z,80.00
2023-02-26T06:00:21.304Z,84.00
2023-02-26T06:01:21.468Z,92.00
2023-02-26T06:02:21.611Z,96.00
2023-02-26T06:03:21.885Z,100.00
2023-02-26T06:04:21.941Z,104.00
2023-02-26T06:05:22.135Z,112.00
2023-02-26T06:06:22.355Z,128.00
2023-02-26T06:07:22.453Z,140.00
2023-02-26T06:08:22.626Z,152.00
2023-02-26T06:09:22.805Z,164.00
2023-02-26T06:10:22.995Z,176.00
2023-02-26T06:11:23.189Z,188.00
2023-02-26T06:12:23.321Z,192.00
2023-02-26T06:13:23.500Z,192.00
2023-02-26T06:14:23.680Z,200.00
2023-02-26T06:15:23.867Z,220.00
2023-02-26T06:16:24.398Z,244.00
2023-02-26T06:17:24.244Z,276.00
2023-02-26T06:18:24.398Z,304.00
2023-02-26T06:19:24.578Z,340.00
2023-02-26T06:20:24.760Z,352.00
2023-02-26T06:21:24.940Z,352.00
2023-02-26T06:22:25.105Z,364.00
2023-02-26T06:23:25.291Z,376.00
2023-02-26T06:24:25.465Z,380.00
2023-02-26T06:25:25.663Z,400.00
2023-02-26T06:26:26.107Z,444.00
2023-02-26T06:27:26.006Z,504.00
2023-02-26T06:28:26.178Z,560.00
2023-02-26T06:29:26.359Z,616.00
2023-02-26T06:30:26.606Z,676.00
2023-02-26T06:31:26.790Z,708.00
2023-02-26T06:32:29.024Z,756.00
2023-02-26T06:33:27.106Z,780.00
2023-02-26T06:34:27.276Z,812.00
2023-02-26T06:35:27.519Z,836.00
2023-02-26T06:36:27.833Z,828.00
2023-02-26T06:37:27.797Z,840.00
2023-02-26T06:38:27.982Z,864.00
2023-02-26T06:39:28.165Z,884.00
2023-02-26T06:40:28.361Z,896.00
2023-02-26T06:41:28.506Z,876.00
2023-02-26T06:42:28.670Z,848.00
2023-02-26T06:43:28.859Z,876.00
2023-02-26T06:44:29.021Z,916.00
2023-02-26T06:45:29.235Z,940.00
2023-02-26T06:46:29.361Z,912.00
2023-02-26T06:47:29.543Z,908.00
2023-02-26T06:48:29.710Z,916.00
2023-02-26T06:49:29.915Z,936.00
2023-02-26T06:50:30.073Z,948.00
2023-02-26T06:51:30.231Z,992.00
2023-02-26T06:52:30.442Z,1024.00
2023-02-26T06:53:30.591Z,1072.00
2023-02-26T06:54:30.781Z,1136.00
2023-02-26T06:55:30.989Z,1164.00
2023-02-26T06:56:31.152Z,1220.00
2023-02-26T06:57:31.349Z,1312.00
2023-02-26T06:58:31.515Z,1424.00
2023-02-26T06:59:31.680Z,1452.00
2023-02-26T07:00:31.880Z,1440.00
2023-02-26T07:01:32.092Z,1468.00
2023-02-26T07:02:32.340Z,1552.00
2023-02-26T07:03:32.407Z,1580.00
2023-02-26T07:04:32.567Z,1584.00
2023-02-26T07:05:32.761Z,1540.00
2023-02-26T07:06:32.919Z,1452.00
2023-02-26T07:07:33.089Z,1424.00
2023-02-26T07:08:33.276Z,1480.00
2023-02-26T07:09:33.427Z,1588.00
2023-02-26T07:10:33.651Z,1740.00
2023-02-26T07:11:33.786Z,1868.00
2023-02-26T07:12:34.007Z,2036.00
2023-02-26T07:13:34.156Z,2164.00
2023-02-26T07:14:34.363Z,2240.00
2023-02-26T07:15:34.560Z,2280.00
2023-02-26T07:16:34.732Z,2344.00
2023-02-26T07:17:34.891Z,2488.00
2023-02-26T07:18:35.065Z,2676.00
2023-02-26T07:19:35.245Z,2856.00
2023-02-26T07:20:35.471Z,2980.00
2023-02-26T07:21:35.625Z,3064.00
2023-02-26T07:22:35.806Z,3244.00
2023-02-26T07:23:36.007Z,3376.00
2023-02-26T07:24:36.186Z,3516.00
2023-02-26T07:25:36.378Z,3652.00
2023-02-26T07:26:36.536Z,3748.00
2023-02-26T07:27:36.713Z,4076.00
2023-02-26T07:28:36.904Z,4244.00
2023-02-26T07:29:37.094Z,4172.00
2023-02-26T07:30:37.368Z,3756.00
2023-02-26T07:31:37.564Z,3624.00
2023-02-26T07:32:37.653Z,3740.00
2023-02-26T07:33:37.833Z,3768.00
2023-02-26T07:34:37.994Z,3700.00
2023-02-26T07:35:38.197Z,3436.00
2023-02-26T07:36:38.354Z,3412.00
2023-02-26T07:37:38.514Z,3308.00
2023-02-26T07:38:38.700Z,3512.00
2023-02-26T07:39:38.850Z,3792.00
2023-02-26T07:40:39.047Z,3984.00
2023-02-26T07:41:39.231Z,4056.00
2023-02-26T07:42:39.359Z,4156.00
2023-02-26T07:43:39.552Z,4348.00
2023-02-26T07:44:39.728Z,4656.00
2023-02-26T07:45:39.904Z,4688.00
2023-02-26T07:46:40.064Z,4572.00
2023-02-26T07:47:40.251Z,4356.00
2023-02-26T07:48:40.420Z,4184.00
2023-02-26T07:49:40.566Z,4328.00
2023-02-26T07:50:40.744Z,4440.00
2023-02-26T07:51:41.011Z,4524.00
2023-02-26T07:52:41.103Z,4404.00
2023-02-26T07:53:41.276Z,4184.00
2023-02-26T07:54:41.442Z,4160.00
2023-02-26T07:55:41.604Z,4412.00
2023-02-26T07:56:41.766Z,4768.00
2023-02-26T07:57:41.959Z,5088.00
2023-02-26T07:58:42.146Z,5124.00
2023-02-26T07:59:42.330Z,5192.00
2023-02-26T08:00:42.498Z,5164.00
2023-02-26T08:01:42.685Z,5320.00
2023-02-26T08:02:42.831Z,5760.00
2023-02-26T08:03:42.989Z,6152.00
2023-02-26T08:04:43.173Z,6512.00
2023-02-26T08:05:43.354Z,6448.00
2023-02-26T08:06:43.517Z,6248.00
2023-02-26T08:07:43.672Z,5924.00
2023-02-26T08:08:43.862Z,6092.00
2023-02-26T08:09:44.023Z,6020.00
2023-02-26T08:10:44.232Z,6036.00
2023-02-26T08:11:44.387Z,5796.00
2023-02-26T08:12:44.573Z,6120.00
2023-02-26T08:13:44.725Z,6320.00
2023-02-26T08:14:44.920Z,6444.00
2023-02-26T08:15:45.128Z,6380.00
2023-02-26T08:16:45.252Z,6428.00
2023-02-26T08:17:45.419Z,7288.00
2023-02-26T08:18:45.578Z,6948.00
2023-02-26T08:19:45.729Z,6696.00
2023-02-26T08:20:45.933Z,6808.00
2023-02-26T08:21:46.101Z,7376.00
2023-02-26T08:22:46.263Z,7820.00
2023-02-26T08:23:46.421Z,8132.00
2023-02-26T08:24:46.594Z,8428.00
2023-02-26T08:25:46.782Z,8912.00
2023-02-26T08:26:46.955Z,9076.00
2023-02-26T08:27:47.110Z,9952.00
2023-02-26T08:28:47.278Z,13048.00
2023-02-26T08:29:47.450Z,15556.00
2023-02-26T08:30:47.676Z,11328.00
2023-02-26T08:31:47.937Z,6368.00
2023-02-26T08:32:48.106Z,12920.00
2023-02-26T08:33:48.160Z,12588.00
2023-02-26T08:34:48.347Z,12472.00
2023-02-26T08:35:48.508Z,12428.00
2023-02-26T08:36:48.669Z,12400.00
2023-02-26T08:37:48.825Z,12376.00
2023-02-26T08:38:48.989Z,12408.00
2023-02-26T08:39:49.174Z,12492.00
2023-02-26T08:40:49.359Z,12596.00
2023-02-26T08:41:49.495Z,12684.00
2023-02-26T08:42:49.671Z,12920.00
2023-02-26T08:43:49.851Z,13032.00
2023-02-26T08:44:50.027Z,13032.00
2023-02-26T08:45:50.242Z,13100.00
2023-02-26T08:46:50.419Z,13400.00
2023-02-26T08:47:56.819Z,13332.00
2023-02-26T08:48:51.780Z,13736.00
2023-02-26T08:49:50.948Z,14284.00
2023-02-26T08:50:51.140Z,15164.00
2023-02-26T08:51:51.311Z,16544.00
2023-02-26T08:52:51.486Z,16992.00
2023-02-26T08:53:51.675Z,8268.00
2023-02-26T08:54:51.852Z,16064.00
2023-02-26T08:55:52.032Z,16992.00
2023-02-26T08:56:52.183Z,15168.00
2023-02-26T08:57:52.371Z,17056.00
2023-02-26T08:58:52.539Z,10040.00
2023-02-26T08:59:52.692Z,18144.00
2023-02-26T09:00:52.892Z,16480.00
2023-02-26T09:01:53.141Z,20704.00
2023-02-26T09:02:53.279Z,22560.00
2023-02-26T09:03:53.390Z,10564.00
2023-02-26T09:04:53.555Z,8608.00
2023-02-26T09:05:53.743Z,7520.00
2023-02-26T09:06:53.885Z,19552.00
2023-02-26T09:07:54.063Z,7972.00
2023-02-26T09:08:54.235Z,26720.00
2023-02-26T09:09:54.418Z,25472.00
2023-02-26T09:10:54.616Z,26272.00
2023-02-26T09:11:54.809Z,8036.00
2023-02-26T09:12:54.972Z,8436.00
2023-02-26T09:13:55.154Z,11992.00
2023-02-26T09:14:55.345Z,15376.00
2023-02-26T09:15:55.580Z,9820.00
2023-02-26T09:16:55.715Z,11224.00
2023-02-26T09:17:55.902Z,19680.00
2023-02-26T09:18:56.064Z,8940.00
2023-02-26T09:19:56.214Z,9468.00
2023-02-26T09:20:56.415Z,14352.00
2023-02-26T09:21:56.552Z,12372.00
2023-02-26T09:22:56.733Z,25472.00
2023-02-26T09:23:56.925Z,27040.00
2023-02-26T09:24:57.159Z,29696.00
2023-02-26T09:25:57.305Z,32608.00
2023-02-26T09:26:57.474Z,35840.00
2023-02-26T09:27:58.741Z,39200.00
2023-02-26T09:28:57.795Z,38848.00
2023-02-26T09:29:57.965Z,29920.00
2023-02-26T09:30:58.197Z,9068.00
2023-02-26T09:31:58.433Z,4480.00
2023-02-26T09:32:58.526Z,4860.00
2023-02-26T09:33:58.675Z,5604.00
2023-02-26T09:34:58.841Z,7060.00
2023-02-26T09:35:59.024Z,43552.00
2023-02-26T09:36:59.195Z,24992.00
2023-02-26T09:37:59.375Z,4756.00
2023-02-26T09:38:59.538Z,5188.00
2023-02-26T09:39:59.675Z,7832.00
2023-02-26T09:40:59.871Z,33312.00
2023-02-26T09:41:59.998Z,32512.00
2023-02-26T09:43:00.177Z,41024.00
2023-02-26T09:44:00.374Z,14976.00
2023-02-26T09:45:00.524Z,38688.00
2023-02-26T09:46:00.747Z,38656.00
2023-02-26T09:47:00.869Z,42112.00
2023-02-26T09:48:01.045Z,38112.00
2023-02-26T09:49:01.225Z,40448.00
2023-02-26T09:50:01.409Z,41248.00
2023-02-26T09:51:01.607Z,8132.00
2023-02-26T09:52:01.785Z,5384.00
2023-02-26T09:53:01.964Z,5372.00
2023-02-26T09:54:02.143Z,38112.00
2023-02-26T09:55:02.311Z,9916.00
2023-02-26T09:56:02.510Z,12132.00
2023-02-26T09:57:02.655Z,8532.00
2023-02-26T09:58:02.834Z,5096.00
2023-02-26T09:59:02.998Z,5392.00
2023-02-26T10:00:03.159Z,41376.00
2023-02-26T10:01:03.361Z,5480.00
2023-02-26T10:02:03.556Z,22944.00
2023-02-26T10:03:03.691Z,43488.00
2023-02-26T10:04:03.921Z,31104.00
2023-02-26T10:05:04.040Z,48704.00
2023-02-26T10:06:04.251Z,18240.00
2023-02-26T10:07:04.395Z,47712.00
2023-02-26T10:08:04.580Z,47264.00
2023-02-26T10:09:04.761Z,7412.00
2023-02-26T10:10:04.920Z,43008.00
2023-02-26T10:11:05.139Z,40160.00
2023-02-26T10:12:05.272Z,13540.00
2023-02-26T10:13:05.446Z,11968.00
2023-02-26T10:14:05.622Z,7316.00
2023-02-26T10:15:05.789Z,6572.00
2023-02-26T10:16:05.973Z,8120.00
2023-02-26T10:17:06.198Z,8340.00
2023-02-26T10:18:06.296Z,8160.00
2023-02-26T10:19:06.482Z,8488.00
2023-02-26T10:20:06.769Z,7404.00
2023-02-26T10:21:06.843Z,8288.00
2023-02-26T10:22:07.001Z,8516.00
2023-02-26T10:23:07.206Z,9740.00
2023-02-26T10:24:07.382Z,9636.00
2023-02-26T10:25:07.574Z,9392.00
2023-02-26T10:26:07.771Z,8300.00
2023-02-26T10:27:07.933Z,6476.00
2023-02-26T10:28:08.111Z,5356.00
2023-02-26T10:29:08.275Z,4280.00
2023-02-26T10:30:08.448Z,3852.00
2023-02-26T10:31:08.709Z,3884.00
2023-02-26T10:32:08.883Z,3740.00
2023-02-26T10:33:08.973Z,3708.00
2023-02-26T10:34:09.149Z,3680.00
2023-02-26T10:35:09.319Z,3724.00
2023-02-26T10:36:09.492Z,3824.00
2023-02-26T10:37:09.655Z,3796.00
2023-02-26T10:38:09.836Z,3728.00
2023-02-26T10:39:10.040Z,3700.00
2023-02-26T10:40:10.195Z,3680.00
2023-02-26T10:41:10.387Z,3676.00
2023-02-26T10:42:10.544Z,3712.00
2023-02-26T10:43:10.769Z,3744.00
2023-02-26T10:44:10.931Z,3756.00
2023-02-26T10:45:11.117Z,3768.00
2023-02-26T10:46:11.422Z,3764.00
2023-02-26T10:47:11.464Z,3724.00
2023-02-26T10:48:11.628Z,3736.00
2023-02-26T10:49:11.791Z,3704.00
2023-02-26T10:50:11.989Z,3728.00
2023-02-26T10:51:12.150Z,3612.00
2023-02-26T10:52:12.330Z,3480.00
2023-02-26T10:53:12.490Z,3416.00
2023-02-26T10:54:12.683Z,3436.00
2023-02-26T10:55:12.841Z,3516.00
2023-02-26T10:56:13.043Z,3576.00
2023-02-26T10:57:13.208Z,3616.00
2023-02-26T10:58:13.389Z,3744.00
2023-02-26T10:59:15.772Z,3844.00
2023-02-26T11:00:13.751Z,3972.00
2023-02-26T11:01:13.960Z,4308.00
2023-02-26T11:02:14.182Z,4416.00
2023-02-26T11:03:14.288Z,4956.00
2023-02-26T11:04:14.456Z,5496.00
2023-02-26T11:05:14.643Z,5292.00
2023-02-26T11:06:14.817Z,5576.00
2023-02-26T11:07:14.975Z,5584.00
2023-02-26T11:08:15.143Z,5644.00
2023-02-26T11:09:15.332Z,5784.00
2023-02-26T11:10:15.495Z,5696.00
2023-02-26T11:11:15.694Z,5876.00
2023-02-26T11:12:15.868Z,5272.00
2023-02-26T11:13:16.015Z,5328.00
2023-02-26T11:14:16.187Z,6256.00
2023-02-26T11:15:16.348Z,5328.00
2023-02-26T11:16:16.587Z,3828.00
2023-02-26T11:17:16.714Z,3648.00
2023-02-26T11:18:16.889Z,3640.00
2023-02-26T11:19:17.072Z,3740.00
2023-02-26T11:20:17.226Z,4220.00
2023-02-26T11:21:17.442Z,4576.00
2023-02-26T11:22:17.656Z,4712.00
2023-02-26T11:23:17.773Z,4584.00
2023-02-26T11:24:17.958Z,4784.00
2023-02-26T11:25:18.173Z,5052.00
2023-02-26T11:26:18.346Z,5112.00
2023-02-26T11:27:18.529Z,4724.00
2023-02-26T11:28:18.686Z,4116.00
2023-02-26T11:29:18.870Z,4124.00
2023-02-26T11:30:19.034Z,4104.00
2023-02-26T11:31:19.321Z,4344.00
2023-02-26T11:32:19.508Z,4692.00
2023-02-26T11:33:19.527Z,5320.00
2023-02-26T11:34:19.697Z,5888.00
2023-02-26T11:35:19.885Z,6656.00
2023-02-26T11:36:20.084Z,7696.00
2023-02-26T11:37:20.234Z,8208.00
2023-02-26T11:38:20.481Z,7676.00
2023-02-26T11:39:20.558Z,7008.00
2023-02-26T11:40:20.725Z,6904.00
2023-02-26T11:41:20.894Z,7688.00
2023-02-26T11:42:21.068Z,7960.00
2023-02-26T11:43:21.234Z,6708.00
2023-02-26T11:44:21.403Z,5864.00
2023-02-26T11:45:21.594Z,5848.00
2023-02-26T11:46:21.824Z,5668.00
2023-02-26T11:47:21.924Z,5372.00
2023-02-26T11:48:22.085Z,5412.00
2023-02-26T11:49:22.263Z,5252.00
2023-02-26T11:50:22.474Z,5244.00
2023-02-26T11:51:22.659Z,5076.00
2023-02-26T11:52:22.811Z,5168.00
2023-02-26T11:53:22.973Z,5936.00
2023-02-26T11:54:23.201Z,6848.00
2023-02-26T11:55:23.344Z,7628.00
2023-02-26T11:56:23.514Z,8600.00
2023-02-26T11:57:23.673Z,8552.00
2023-02-26T11:58:23.860Z,7748.00
2023-02-26T11:59:24.020Z,7776.00
2023-02-26T12:00:24.209Z,7372.00
2023-02-26T12:01:24.836Z,7180.00
2023-02-26T12:02:24.641Z,6736.00
2023-02-26T12:03:24.772Z,5632.00
2023-02-26T12:04:27.493Z,5408.00
2023-02-26T12:05:25.097Z,5656.00
2023-02-26T12:06:25.277Z,6340.00
2023-02-26T12:07:25.413Z,7152.00
2023-02-26T12:08:25.603Z,7636.00
2023-02-26T12:09:25.788Z,7776.00
2023-02-26T12:10:25.980Z,7300.00
2023-02-26T12:11:26.446Z,6680.00
2023-02-26T12:12:26.306Z,6908.00
2023-02-26T12:13:26.493Z,7248.00
2023-02-26T12:14:26.705Z,7548.00
2023-02-26T12:15:26.870Z,7148.00
2023-02-26T12:16:27.104Z,6436.00
2023-02-26T12:17:27.209Z,5788.00
2023-02-26T12:18:27.398Z,4952.00
2023-02-26T12:19:27.700Z,4400.00
2023-02-26T12:20:27.774Z,4048.00
2023-02-26T12:21:28.517Z,3916.00
2023-02-26T12:22:28.123Z,4004.00
2023-02-26T12:23:28.312Z,4328.00
2023-02-26T12:24:28.495Z,4520.00
2023-02-26T12:25:28.644Z,4788.00
2023-02-26T12:26:28.880Z,5584.00
2023-02-26T12:27:29.024Z,5888.00
2023-02-26T12:28:29.218Z,5476.00
2023-02-26T12:29:29.397Z,5396.00
2023-02-26T12:30:29.602Z,5132.00
2023-02-26T12:31:30.430Z,5260.00
2023-02-26T12:32:29.959Z,6372.00
2023-02-26T12:33:30.134Z,6600.00
2023-02-26T12:34:30.295Z,6764.00
2023-02-26T12:35:30.484Z,7104.00
2023-02-26T12:36:46.483Z,6496.00
2023-02-26T12:37:31.852Z,5644.00
2023-02-26T12:38:31.026Z,4792.00
2023-02-26T12:39:31.209Z,4600.00